Ana Sayfa
METAR-TAF:

METAR-TAF

Havaalanları :

Reynosa, Meksika

Enlem: 26-01N, Boylam: 098-14W, yükseklik: 39 m

Güncel hava durumu gözlemi

Rapor saat 12:43 UTC de 40 dakika önce yapıldı.
Sakin rüzgar
Sıcaklık 26°C
Nem 84%
Basınç 1012 hPa
Görüş mesafesi: 16.1 km
Açık gökyüzü

METAR: MMRX 231243Z 00000KT 10SM SKC 26/23 A2987

Saat: 08:23 (13:23 UTC)

Tahmin

Rapor saat 13:07 UTC de 16 dakika önce yapıldı.
Ayın 23'si saat 13 UTC'den ayın 24'si saat 06 UTC'ye kadar geçerli Tahmin
Rüzgar güneydoğudan 10 kt
Görüş mesafesi: 10 km
Açık gökyüzü
Ayın 23'si saat 1700 UTC'den
Rüzgar güneydoğudan 15 kt
Görüş mesafesi: 10 km
2000 ft yükseklikte parçalı bulutlu
Dönüşüyor
ayın 24'si saat 01 UTC'den ayın 24'si saat 02 UTC'ye kadar
Rüzgar güneydoğudan 6 kt

TAF: MMRX 231307Z 2313/2406 14010KT P6SM SKC FM231700 14015KT P6SM SCT020 BECMG 2401/2402 14006KT

4.000'den fazla havaalanı için hava durumu gözlemleri ve tahminleri (METAR ve TAF raporları).

Kullanılabilir istasyonlar harita üzerinde sarı ve kırmızı noktalarla gösterilir.

İstasyonun adını görmek için fareyi noktanın üzerinde gezdirin.

Sonrasında hava gözlem ve tahminlerini görmek için tıklayın.

Haritayı değiştirmek için: yaklaştırmak için siyah artı işaretli yeşil düğmeye ve uzaklaştırmak için de eksi işaretli düğmeye hızla tıklayın; bitişik haritalar için yeşil okları kullanın.


METAR-TAF: